createdAt,value
2019-02-20T00:00:12.921Z,0
2019-02-20T00:01:13.591Z,0
2019-02-20T00:02:14.261Z,0
2019-02-20T00:03:14.929Z,0
2019-02-20T00:04:15.603Z,0
2019-02-20T00:05:16.268Z,0
2019-02-20T00:06:16.937Z,0
2019-02-20T00:07:17.608Z,0
2019-02-20T00:08:18.323Z,0
2019-02-20T00:09:18.969Z,0
2019-02-20T00:10:19.693Z,0
2019-02-20T00:11:20.351Z,0
2019-02-20T00:12:21.018Z,0
2019-02-20T00:13:21.689Z,0
2019-02-20T00:14:22.355Z,0
2019-02-20T00:15:23.025Z,0
2019-02-20T00:16:23.692Z,0
2019-02-20T00:17:24.361Z,0
2019-02-20T00:18:25.035Z,0
2019-02-20T00:19:25.700Z,0
2019-02-20T00:20:26.368Z,0
2019-02-20T00:21:27.037Z,0
2019-02-20T00:22:27.705Z,0
2019-02-20T00:23:28.375Z,0
2019-02-20T00:24:29.044Z,0
2019-02-20T00:25:29.714Z,0
2019-02-20T00:26:30.382Z,0
2019-02-20T00:27:31.052Z,0
2019-02-20T00:28:31.720Z,0
2019-02-20T00:29:32.388Z,0
2019-02-20T00:30:33.057Z,0
2019-02-20T00:31:33.730Z,0
2019-02-20T00:32:34.395Z,0
2019-02-20T00:33:35.064Z,0
2019-02-20T00:34:35.736Z,0
2019-02-20T00:35:36.402Z,0
2019-02-20T00:36:37.074Z,0
2019-02-20T00:37:37.749Z,0
2019-02-20T00:38:38.413Z,0
2019-02-20T00:39:39.126Z,0
2019-02-20T00:40:39.794Z,0
2019-02-20T00:41:40.461Z,0
2019-02-20T00:42:41.130Z,0
2019-02-20T00:43:41.800Z,0
2019-02-20T00:44:42.469Z,0
2019-02-20T00:45:43.186Z,0
2019-02-20T00:46:43.858Z,0
2019-02-20T00:47:44.522Z,0
2019-02-20T00:48:45.200Z,0
2019-02-20T00:49:45.909Z,0
2019-02-20T00:50:46.616Z,0
2019-02-20T00:51:47.238Z,0
2019-02-20T00:52:50.153Z,0
2019-02-20T00:53:49.568Z,0
2019-02-20T00:54:50.237Z,0
2019-02-20T00:55:50.902Z,0
2019-02-20T00:56:51.620Z,0
2019-02-20T00:57:52.288Z,0
2019-02-20T00:58:52.957Z,0
2019-02-20T00:59:53.625Z,0
2019-02-20T01:00:54.342Z,0
2019-02-20T01:01:55.011Z,0
2019-02-20T01:02:55.682Z,0
2019-02-20T01:03:56.347Z,0
2019-02-20T01:04:57.017Z,0
2019-02-20T01:05:57.687Z,0
2019-02-20T01:06:58.353Z,0
2019-02-20T01:07:59.020Z,0
2019-02-20T01:08:59.691Z,0
2019-02-20T01:10:00.507Z,0
2019-02-20T01:11:01.120Z,0
2019-02-20T01:12:01.790Z,0
2019-02-20T01:13:02.456Z,0
2019-02-20T01:14:03.125Z,0
2019-02-20T01:15:03.792Z,0
2019-02-20T01:16:04.461Z,0
2019-02-20T01:17:05.132Z,0
2019-02-20T01:18:05.801Z,0
2019-02-20T01:19:06.466Z,0
2019-02-20T01:20:07.136Z,0
2019-02-20T01:21:07.804Z,0
2019-02-20T01:22:08.471Z,0
2019-02-20T01:23:09.140Z,0
2019-02-20T01:24:09.808Z,0
2019-02-20T01:25:10.475Z,0
2019-02-20T01:26:11.144Z,0
2019-02-20T01:27:11.813Z,0
2019-02-20T01:28:12.484Z,0
2019-02-20T01:29:13.153Z,0
2019-02-20T01:30:13.820Z,0
2019-02-20T01:31:14.487Z,0
2019-02-20T01:32:15.159Z,0
2019-02-20T01:33:16.584Z,0
2019-02-20T01:34:17.288Z,0
2019-02-20T01:35:17.951Z,0
2019-02-20T01:36:18.618Z,0
2019-02-20T01:37:19.290Z,0
2019-02-20T01:38:19.956Z,0
2019-02-20T01:39:20.626Z,0
2019-02-20T01:40:21.293Z,0
2019-02-20T01:41:21.960Z,0
2019-02-20T01:42:22.630Z,0
2019-02-20T01:43:23.298Z,0
2019-02-20T01:44:23.969Z,0
2019-02-20T01:45:24.633Z,0
2019-02-20T01:46:25.303Z,0
2019-02-20T01:47:25.970Z,0
2019-02-20T01:48:26.639Z,0
2019-02-20T01:49:27.306Z,0
2019-02-20T01:50:27.976Z,0
2019-02-20T01:51:28.644Z,0
2019-02-20T01:52:29.313Z,0
2019-02-20T01:53:29.979Z,0
2019-02-20T01:54:30.652Z,0
2019-02-20T01:55:31.317Z,0
2019-02-20T01:56:31.990Z,0
2019-02-20T01:57:32.654Z,0
2019-02-20T01:58:33.322Z,0
2019-02-20T01:59:33.993Z,0
2019-02-20T02:00:34.665Z,0
2019-02-20T02:01:35.336Z,0
2019-02-20T02:02:35.996Z,0
2019-02-20T02:03:36.670Z,0
2019-02-20T02:04:37.333Z,0
2019-02-20T02:05:38.019Z,0
2019-02-20T02:06:38.670Z,0
2019-02-20T02:07:39.338Z,0
2019-02-20T02:08:40.006Z,0
2019-02-20T02:09:40.674Z,0
2019-02-20T02:10:41.346Z,0
2019-02-20T02:11:42.010Z,0
2019-02-20T02:12:42.681Z,0
2019-02-20T02:13:43.351Z,0
2019-02-20T02:14:44.016Z,0
2019-02-20T02:15:44.684Z,0
2019-02-20T02:16:45.351Z,0
2019-02-20T02:17:46.018Z,0
2019-02-20T02:18:46.688Z,0
2019-02-20T02:19:47.357Z,0
2019-02-20T02:20:48.024Z,0
2019-02-20T02:21:48.692Z,0
2019-02-20T02:22:49.362Z,0
2019-02-20T02:23:50.030Z,0
2019-02-20T02:24:50.699Z,0
2019-02-20T02:25:51.366Z,0
2019-02-20T02:26:52.038Z,0
2019-02-20T02:27:52.704Z,0
2019-02-20T02:28:53.371Z,0
2019-02-20T02:29:54.038Z,0
2019-02-20T02:30:54.708Z,0
2019-02-20T02:31:55.385Z,0
2019-02-20T02:32:57.356Z,0
2019-02-20T02:33:57.708Z,0
2019-02-20T02:34:58.374Z,0
2019-02-20T02:35:59.091Z,0
2019-02-20T02:36:59.808Z,0
2019-02-20T02:38:00.475Z,0
2019-02-20T02:39:01.142Z,0
2019-02-20T02:40:01.810Z,0
2019-02-20T02:41:02.489Z,0
2019-02-20T02:42:03.265Z,0
2019-02-20T02:43:03.914Z,0
2019-02-20T02:44:04.569Z,0
2019-02-20T02:45:05.250Z,0
2019-02-20T02:46:05.920Z,0
2019-02-20T02:47:06.593Z,0
2019-02-20T02:48:07.244Z,0
2019-02-20T02:49:07.913Z,0
2019-02-20T02:50:08.581Z,0
2019-02-20T02:51:09.271Z,0
2019-02-20T02:52:09.965Z,0
2019-02-20T02:53:10.638Z,0
2019-02-20T02:54:11.302Z,0
2019-02-20T02:55:11.988Z,0
2019-02-20T02:56:12.643Z,0
2019-02-20T02:57:13.307Z,0
2019-02-20T02:58:13.975Z,0
2019-02-20T02:59:14.653Z,0
2019-02-20T03:00:15.312Z,0
2019-02-20T03:01:15.980Z,0
2019-02-20T03:02:16.649Z,0
2019-02-20T03:03:17.317Z,0
2019-02-20T03:04:17.988Z,0
2019-02-20T03:05:18.659Z,0
2019-02-20T03:06:19.323Z,0
2019-02-20T03:07:19.988Z,0
2019-02-20T03:08:20.659Z,0
2019-02-20T03:09:21.333Z,0
2019-02-20T03:10:21.995Z,0
2019-02-20T03:11:22.874Z,0
2019-02-20T03:12:23.569Z,0
2019-02-20T03:13:24.237Z,0
2019-02-20T03:14:24.913Z,0
2019-02-20T03:15:25.574Z,0
2019-02-20T03:16:26.242Z,0
2019-02-20T03:17:26.912Z,0
2019-02-20T03:18:27.577Z,0
2019-02-20T03:19:28.244Z,0
2019-02-20T03:20:28.913Z,0
2019-02-20T03:21:29.580Z,0
2019-02-20T03:22:30.249Z,0
2019-02-20T03:23:39.840Z,0
2019-02-20T03:24:32.575Z,0
2019-02-20T03:25:33.245Z,0
2019-02-20T03:26:33.912Z,0
2019-02-20T03:27:34.579Z,0
2019-02-20T03:28:35.247Z,0
2019-02-20T03:29:35.916Z,0
2019-02-20T03:30:36.607Z,0
2019-02-20T03:31:37.253Z,0
2019-02-20T03:32:37.921Z,0
2019-02-20T03:33:38.672Z,0
2019-02-20T03:34:39.299Z,0
2019-02-20T03:35:39.968Z,0
2019-02-20T03:36:40.633Z,0
2019-02-20T03:37:41.315Z,0
2019-02-20T03:38:41.978Z,0
2019-02-20T03:39:42.641Z,0
2019-02-20T03:40:43.307Z,0
2019-02-20T03:41:43.978Z,0
2019-02-20T03:42:44.645Z,0
2019-02-20T03:43:45.315Z,0
2019-02-20T03:44:45.982Z,0
2019-02-20T03:45:46.652Z,0
2019-02-20T03:46:47.333Z,0
2019-02-20T03:47:47.989Z,0
2019-02-20T03:48:48.654Z,0
2019-02-20T03:49:49.323Z,0
2019-02-20T03:50:49.991Z,0
2019-02-20T03:51:50.662Z,0
2019-02-20T03:52:51.329Z,0
2019-02-20T03:53:52.508Z,0
2019-02-20T03:54:52.705Z,0
2019-02-20T03:55:53.373Z,0
2019-02-20T03:56:54.044Z,0
2019-02-20T03:57:54.763Z,0
2019-02-20T03:58:55.428Z,0
2019-02-20T03:59:56.093Z,0
2019-02-20T04:00:56.762Z,0
2019-02-20T04:01:57.439Z,0
2019-02-20T04:02:58.099Z,0
2019-02-20T04:03:58.769Z,0
2019-02-20T04:04:59.485Z,0
2019-02-20T04:06:00.154Z,0
2019-02-20T04:07:00.821Z,0
2019-02-20T04:08:01.488Z,0
2019-02-20T04:09:02.159Z,0
2019-02-20T04:10:02.828Z,0
2019-02-20T04:11:03.494Z,0
2019-02-20T04:12:04.168Z,0
2019-02-20T04:13:04.830Z,0
2019-02-20T04:14:05.503Z,0
2019-02-20T04:15:06.168Z,0
2019-02-20T04:16:06.837Z,0
2019-02-20T04:17:07.505Z,0
2019-02-20T04:18:08.168Z,0
2019-02-20T04:19:08.853Z,0
2019-02-20T04:20:09.504Z,0
2019-02-20T04:21:10.173Z,0
2019-02-20T04:22:10.842Z,0
2019-02-20T04:23:11.518Z,0
2019-02-20T04:24:12.179Z,0
2019-02-20T04:25:12.848Z,0
2019-02-20T04:26:13.513Z,0
2019-02-20T04:27:14.182Z,0
2019-02-20T04:28:14.849Z,0
2019-02-20T04:29:15.519Z,0
2019-02-20T04:30:16.193Z,0
2019-02-20T04:31:16.855Z,0
2019-02-20T04:32:17.526Z,0
2019-02-20T04:33:18.190Z,0
2019-02-20T04:34:18.857Z,0
2019-02-20T04:35:19.534Z,0
2019-02-20T04:36:20.194Z,0
2019-02-20T04:37:20.863Z,0
2019-02-20T04:38:21.530Z,0
2019-02-20T04:39:22.197Z,0
2019-02-20T04:40:22.865Z,0
2019-02-20T04:41:23.541Z,0
2019-02-20T04:42:24.199Z,0
2019-02-20T04:43:24.866Z,0
2019-02-20T04:44:25.537Z,0
2019-02-20T04:45:26.213Z,0
2019-02-20T04:46:26.874Z,0
2019-02-20T04:47:27.543Z,0
2019-02-20T04:48:28.209Z,0
2019-02-20T04:49:28.879Z,0
2019-02-20T04:50:29.570Z,0
2019-02-20T04:51:30.263Z,0
2019-02-20T04:52:30.932Z,0
2019-02-20T04:53:31.602Z,0
2019-02-20T04:54:32.270Z,0
2019-02-20T04:55:32.943Z,0
2019-02-20T04:56:33.606Z,0
2019-02-20T04:57:34.274Z,0
2019-02-20T04:58:34.942Z,0
2019-02-20T04:59:35.613Z,0
2019-02-20T05:00:36.328Z,0
2019-02-20T05:01:36.996Z,0
2019-02-20T05:02:37.784Z,0
2019-02-20T05:03:38.407Z,0
2019-02-20T05:04:39.077Z,0
2019-02-20T05:05:39.745Z,0
2019-02-20T05:06:40.411Z,0
2019-02-20T05:07:41.082Z,0
2019-02-20T05:08:41.747Z,0
2019-02-20T05:09:42.425Z,0
2019-02-20T05:10:43.084Z,0
2019-02-20T05:11:43.755Z,0
2019-02-20T05:12:44.421Z,0
2019-02-20T05:13:45.093Z,0
2019-02-20T05:14:45.809Z,0
2019-02-20T05:15:46.473Z,0
2019-02-20T05:16:47.145Z,0
2019-02-20T05:17:47.865Z,0
2019-02-20T05:18:48.532Z,0
2019-02-20T05:19:49.199Z,0
2019-02-20T05:20:49.867Z,0
2019-02-20T05:21:50.537Z,0
2019-02-20T05:22:51.206Z,0
2019-02-20T05:23:51.875Z,0
2019-02-20T05:24:52.547Z,0
2019-02-20T05:25:53.210Z,0
2019-02-20T05:26:53.878Z,0
2019-02-20T05:27:54.546Z,0
2019-02-20T05:28:55.217Z,0
2019-02-20T05:29:55.883Z,0
2019-02-20T05:30:56.554Z,0
2019-02-20T05:31:57.219Z,0
2019-02-20T05:32:57.890Z,0
2019-02-20T05:33:58.606Z,0
2019-02-20T05:34:59.273Z,0
2019-02-20T05:35:59.972Z,0
2019-02-20T05:37:00.661Z,0
2019-02-20T05:38:01.378Z,0
2019-02-20T05:39:02.048Z,0
2019-02-20T05:40:02.718Z,0
2019-02-20T05:41:03.434Z,0
2019-02-20T05:42:04.107Z,0
2019-02-20T05:43:04.772Z,0
2019-02-20T05:44:05.439Z,0
2019-02-20T05:45:06.106Z,0
2019-02-20T05:46:06.777Z,0
2019-02-20T05:47:07.444Z,0
2019-02-20T05:48:08.117Z,0
2019-02-20T05:49:08.790Z,0
2019-02-20T05:50:09.499Z,0
2019-02-20T05:51:10.167Z,0
2019-02-20T05:52:10.839Z,0
2019-02-20T05:53:11.503Z,0
2019-02-20T05:54:12.173Z,4
2019-02-20T05:55:12.844Z,4
2019-02-20T05:56:13.510Z,0
2019-02-20T05:57:14.179Z,0
2019-02-20T05:58:14.847Z,4
2019-02-20T05:59:15.517Z,4
2019-02-20T06:00:16.185Z,4
2019-02-20T06:01:16.856Z,4
2019-02-20T06:02:17.522Z,4
2019-02-20T06:03:18.191Z,8
2019-02-20T06:04:18.900Z,12
2019-02-20T06:05:19.602Z,12
2019-02-20T06:06:20.240Z,12
2019-02-20T06:07:20.909Z,12
2019-02-20T06:08:21.578Z,16
2019-02-20T06:09:22.250Z,16
2019-02-20T06:10:22.928Z,20
2019-02-20T06:11:23.588Z,24
2019-02-20T06:12:24.255Z,28
2019-02-20T06:13:24.935Z,28
2019-02-20T06:14:25.598Z,36
2019-02-20T06:15:26.331Z,40
2019-02-20T06:16:26.992Z,48
2019-02-20T06:17:27.660Z,56
2019-02-20T06:18:28.331Z,64
2019-02-20T06:19:29.007Z,72
2019-02-20T06:20:29.680Z,76
2019-02-20T06:21:30.344Z,88
2019-02-20T06:22:31.016Z,92
2019-02-20T06:23:31.689Z,96
2019-02-20T06:24:32.409Z,104
2019-02-20T06:25:33.082Z,112
2019-02-20T06:26:33.756Z,120
2019-02-20T06:27:34.423Z,120
2019-02-20T06:28:35.099Z,128
2019-02-20T06:29:35.767Z,132
2019-02-20T06:30:36.440Z,140
2019-02-20T06:31:37.113Z,152
2019-02-20T06:32:37.816Z,164
2019-02-20T06:33:38.457Z,180
2019-02-20T06:34:39.128Z,196
2019-02-20T06:35:39.801Z,208
2019-02-20T06:36:40.473Z,224
2019-02-20T06:37:41.161Z,244
2019-02-20T06:38:41.821Z,264
2019-02-20T06:39:42.493Z,292
2019-02-20T06:40:43.169Z,324
2019-02-20T06:41:43.850Z,364
2019-02-20T06:42:44.561Z,408
2019-02-20T06:43:45.232Z,460
2019-02-20T06:44:45.906Z,496
2019-02-20T06:45:46.581Z,508
2019-02-20T06:46:47.252Z,500
2019-02-20T06:47:47.925Z,468
2019-02-20T06:48:48.601Z,448
2019-02-20T06:49:49.273Z,476
2019-02-20T06:50:49.948Z,536
2019-02-20T06:51:50.622Z,616
2019-02-20T06:52:51.294Z,696
2019-02-20T06:53:51.976Z,776
2019-02-20T06:54:54.165Z,856
2019-02-20T06:55:53.356Z,940
2019-02-20T06:56:54.031Z,1012
2019-02-20T06:57:54.757Z,1088
2019-02-20T06:58:55.478Z,1176
2019-02-20T06:59:56.152Z,1272
2019-02-20T07:00:56.826Z,1368
2019-02-20T07:01:57.502Z,1460
2019-02-20T07:02:58.175Z,1548
2019-02-20T07:03:58.849Z,1636
2019-02-20T07:04:59.525Z,1720
2019-02-20T07:06:00.199Z,1800
2019-02-20T07:07:00.873Z,1872
2019-02-20T07:08:01.548Z,1924
2019-02-20T07:09:02.229Z,1964
2019-02-20T07:10:02.898Z,1984
2019-02-20T07:11:03.576Z,1988
2019-02-20T07:12:04.247Z,1964
2019-02-20T07:13:04.921Z,1924
2019-02-20T07:14:05.595Z,1868
2019-02-20T07:15:06.272Z,1808
2019-02-20T07:16:06.945Z,1760
2019-02-20T07:17:07.661Z,1728
2019-02-20T07:18:08.343Z,1728
2019-02-20T07:19:09.018Z,1756
2019-02-20T07:20:09.694Z,1808
2019-02-20T07:21:10.371Z,1868
2019-02-20T07:22:11.093Z,1932
2019-02-20T07:23:11.768Z,2008
2019-02-20T07:24:12.445Z,2076
2019-02-20T07:25:13.120Z,2136
2019-02-20T07:26:13.795Z,2172
2019-02-20T07:27:14.476Z,2204
2019-02-20T07:28:15.144Z,2216
2019-02-20T07:29:15.872Z,2208
2019-02-20T07:30:16.546Z,2180
2019-02-20T07:31:17.223Z,2132
2019-02-20T07:32:17.895Z,2092
2019-02-20T07:33:18.570Z,2056
2019-02-20T07:34:19.246Z,2032
2019-02-20T07:35:19.923Z,2020
2019-02-20T07:36:20.605Z,2008
2019-02-20T07:37:21.271Z,2016
2019-02-20T07:38:21.947Z,2036
2019-02-20T07:39:22.638Z,2068
2019-02-20T07:40:23.302Z,2112
2019-02-20T07:41:24.014Z,2176
2019-02-20T07:42:24.691Z,2248
2019-02-20T07:43:25.365Z,2348
2019-02-20T07:44:26.041Z,2464
2019-02-20T07:45:26.716Z,2584
2019-02-20T07:46:27.445Z,2688
2019-02-20T07:47:28.115Z,2780
2019-02-20T07:48:28.792Z,2872
2019-02-20T07:49:29.468Z,2960
2019-02-20T07:50:30.188Z,3044
2019-02-20T07:51:30.864Z,3140
2019-02-20T07:52:31.537Z,3248
2019-02-20T07:53:32.214Z,3356
2019-02-20T07:54:32.891Z,3472
2019-02-20T07:55:33.568Z,3568
2019-02-20T07:56:34.245Z,3632
2019-02-20T07:57:34.921Z,3648
2019-02-20T07:58:35.648Z,3628
2019-02-20T07:59:36.323Z,3564
2019-02-20T08:00:37.047Z,3480
2019-02-20T08:01:37.722Z,3408
2019-02-20T08:02:38.393Z,3368
2019-02-20T08:03:39.075Z,3388
2019-02-20T08:04:39.749Z,3472
2019-02-20T08:05:40.427Z,3604
2019-02-20T08:06:41.155Z,3752
2019-02-20T08:07:41.828Z,3880
2019-02-20T08:08:42.540Z,3984
2019-02-20T08:09:43.230Z,4072
2019-02-20T08:10:43.907Z,4160
2019-02-20T08:11:44.583Z,4256
2019-02-20T08:12:45.264Z,4340
2019-02-20T08:13:45.957Z,4392
2019-02-20T08:14:46.616Z,4424
2019-02-20T08:15:47.290Z,4440
2019-02-20T08:16:52.221Z,4432
2019-02-20T08:17:49.636Z,4432
2019-02-20T08:18:50.314Z,4436
2019-02-20T08:19:50.993Z,4448
2019-02-20T08:20:51.730Z,4456
2019-02-20T08:21:52.407Z,4440
2019-02-20T08:22:53.125Z,4404
2019-02-20T08:23:53.802Z,4360
2019-02-20T08:24:54.480Z,4312
2019-02-20T08:25:55.158Z,4264
2019-02-20T08:26:55.836Z,4216
2019-02-20T08:27:56.507Z,4192
2019-02-20T08:28:57.186Z,4216
2019-02-20T08:29:57.864Z,4276
2019-02-20T08:30:58.539Z,4364
2019-02-20T08:31:59.217Z,4468
2019-02-20T08:32:59.894Z,4580
2019-02-20T08:34:00.576Z,4712
2019-02-20T08:35:01.251Z,4848
2019-02-20T08:36:01.927Z,4972
2019-02-20T08:37:02.656Z,5072
2019-02-20T08:38:03.331Z,5168
2019-02-20T08:39:04.009Z,5264
2019-02-20T08:40:04.693Z,5352
2019-02-20T08:41:05.413Z,5432
2019-02-20T08:42:06.092Z,5536
2019-02-20T08:43:06.771Z,5652
2019-02-20T08:44:07.448Z,5756
2019-02-20T08:45:08.125Z,5844
2019-02-20T08:46:08.804Z,5908
2019-02-20T08:47:09.481Z,5944
2019-02-20T08:48:10.160Z,5992
2019-02-20T08:49:10.845Z,6096
2019-02-20T08:50:11.515Z,6148
2019-02-20T08:51:12.213Z,6164
2019-02-20T08:52:12.923Z,6160
2019-02-20T08:53:13.602Z,6148
2019-02-20T08:54:14.280Z,6136
2019-02-20T08:55:14.963Z,6108
2019-02-20T08:56:15.689Z,6052
2019-02-20T08:57:16.371Z,5928
2019-02-20T08:58:17.054Z,5736
2019-02-20T08:59:17.737Z,5544
2019-02-20T09:00:18.460Z,5400
2019-02-20T09:01:19.142Z,5268
2019-02-20T09:02:19.820Z,5196
2019-02-20T09:03:20.499Z,5188
2019-02-20T09:04:21.176Z,5188
2019-02-20T09:05:21.856Z,5212
2019-02-20T09:06:22.536Z,5268
2019-02-20T09:07:23.216Z,5324
2019-02-20T09:08:23.897Z,5400
2019-02-20T09:09:24.577Z,5492
2019-02-20T09:10:25.256Z,5576
2019-02-20T09:11:25.937Z,5648
2019-02-20T09:12:26.612Z,5736
2019-02-20T09:13:27.295Z,5820
2019-02-20T09:14:27.974Z,5884
2019-02-20T09:15:28.654Z,5912
2019-02-20T09:16:29.336Z,5920
2019-02-20T09:17:30.017Z,5928
2019-02-20T09:18:30.741Z,5932
2019-02-20T09:19:31.420Z,5904
2019-02-20T09:20:32.102Z,5864
2019-02-20T09:21:32.778Z,5856
2019-02-20T09:22:33.459Z,5916
2019-02-20T09:23:34.140Z,5904
2019-02-20T09:24:34.821Z,5876
2019-02-20T09:25:41.528Z,5848
2019-02-20T09:26:36.223Z,5840
2019-02-20T09:27:36.903Z,5800
2019-02-20T09:28:37.582Z,5780
2019-02-20T09:29:38.282Z,5768
2019-02-20T09:30:38.995Z,5800
2019-02-20T09:31:39.673Z,5856
2019-02-20T09:32:40.355Z,5924
2019-02-20T09:33:41.035Z,6004
2019-02-20T09:34:41.723Z,6052
2019-02-20T09:35:42.396Z,6060
2019-02-20T09:36:43.075Z,6068
2019-02-20T09:37:43.755Z,6048
2019-02-20T09:38:44.435Z,5988
2019-02-20T09:39:45.161Z,5932
2019-02-20T09:40:45.843Z,5940
2019-02-20T09:41:46.523Z,5932
2019-02-20T09:42:47.209Z,5904
2019-02-20T09:43:47.884Z,5860
2019-02-20T09:44:48.564Z,5824
2019-02-20T09:45:49.245Z,5772
2019-02-20T09:46:49.974Z,5720
2019-02-20T09:47:50.652Z,5680
2019-02-20T09:48:51.332Z,5676
2019-02-20T09:49:52.016Z,5708
2019-02-20T09:50:52.773Z,5752
2019-02-20T09:51:53.428Z,5832
2019-02-20T09:52:54.152Z,5964
2019-02-20T09:53:54.833Z,6040
2019-02-20T09:54:55.517Z,6008
2019-02-20T09:55:56.194Z,6008
2019-02-20T09:56:56.874Z,6056
2019-02-20T09:57:57.556Z,5988
2019-02-20T09:58:58.235Z,5936
2019-02-20T09:59:58.913Z,5916
2019-02-20T10:00:59.595Z,5832
2019-02-20T10:02:00.274Z,5740
2019-02-20T10:03:00.956Z,5708
2019-02-20T10:04:01.636Z,5716
2019-02-20T10:05:02.317Z,5720
2019-02-20T10:06:02.996Z,5712
2019-02-20T10:07:03.678Z,5676
2019-02-20T10:08:04.580Z,5652
2019-02-20T10:09:05.080Z,5672
2019-02-20T10:10:05.773Z,5616
2019-02-20T10:11:06.472Z,5548
2019-02-20T10:12:07.151Z,5604
2019-02-20T10:13:10.084Z,5604
2019-02-20T10:14:09.504Z,5580
2019-02-20T10:15:10.184Z,5600
2019-02-20T10:16:10.864Z,5664
2019-02-20T10:17:11.594Z,5732
2019-02-20T10:18:12.339Z,5780
2019-02-20T10:19:12.981Z,5852
2019-02-20T10:20:13.664Z,5964
2019-02-20T10:21:14.344Z,6032
2019-02-20T10:22:15.026Z,6216
2019-02-20T10:23:15.754Z,6300
2019-02-20T10:24:16.437Z,6388
2019-02-20T10:25:17.127Z,6568
2019-02-20T10:26:17.800Z,6524
2019-02-20T10:27:18.481Z,6420
2019-02-20T10:28:19.159Z,6236
2019-02-20T10:29:19.838Z,6068
2019-02-20T10:30:20.519Z,5916
2019-02-20T10:31:21.203Z,5696
2019-02-20T10:32:21.881Z,5412
2019-02-20T10:33:22.564Z,5256
2019-02-20T10:34:23.244Z,5500
2019-02-20T10:35:23.923Z,5496
2019-02-20T10:36:24.604Z,5496
2019-02-20T10:37:25.286Z,5544
2019-02-20T10:38:26.016Z,5532
2019-02-20T10:39:26.648Z,5748
2019-02-20T10:40:27.329Z,5788
2019-02-20T10:41:28.012Z,5728
2019-02-20T10:42:28.695Z,5760
2019-02-20T10:43:29.387Z,5632
2019-02-20T10:44:30.110Z,5244
2019-02-20T10:45:30.788Z,5072
2019-02-20T10:46:31.470Z,5708
2019-02-20T10:47:32.150Z,6236
2019-02-20T10:48:32.829Z,6700
2019-02-20T10:49:33.511Z,6960
2019-02-20T10:50:34.190Z,6384
2019-02-20T10:51:34.872Z,6976
2019-02-20T10:52:35.553Z,7044
2019-02-20T10:53:36.234Z,6364
2019-02-20T10:54:36.915Z,6488
2019-02-20T10:55:37.596Z,6588
2019-02-20T10:56:38.276Z,6184
2019-02-20T10:57:38.956Z,5688
2019-02-20T10:58:39.638Z,5280
2019-02-20T10:59:40.316Z,5072
2019-02-20T11:00:40.999Z,4880
2019-02-20T11:01:41.732Z,4784
2019-02-20T11:02:42.414Z,4592
2019-02-20T11:03:43.094Z,4468
2019-02-20T11:04:43.775Z,4708
2019-02-20T11:05:44.457Z,4920
2019-02-20T11:06:45.161Z,5316
2019-02-20T11:07:45.868Z,5444
2019-02-20T11:08:46.548Z,5644
2019-02-20T11:09:47.231Z,5520
2019-02-20T11:10:47.908Z,5564
2019-02-20T11:11:48.590Z,5264
2019-02-20T11:12:50.193Z,5032
2019-02-20T11:13:50.891Z,5204
2019-02-20T11:14:51.572Z,5496
2019-02-20T11:15:52.252Z,5916
2019-02-20T11:16:52.932Z,5780
2019-02-20T11:17:53.613Z,5896
2019-02-20T11:18:54.294Z,5812
2019-02-20T11:19:54.975Z,6028
2019-02-20T11:20:55.665Z,6116
2019-02-20T11:21:56.340Z,6004
2019-02-20T11:22:57.023Z,5840
2019-02-20T11:23:57.701Z,5820
2019-02-20T11:24:58.426Z,5396
2019-02-20T11:25:59.058Z,5320
2019-02-20T11:26:59.739Z,5432
2019-02-20T11:28:00.420Z,5432
2019-02-20T11:29:01.105Z,5596
2019-02-20T11:30:01.782Z,5604
2019-02-20T11:31:02.463Z,5520
2019-02-20T11:32:03.179Z,5188
2019-02-20T11:33:03.876Z,4936
2019-02-20T11:34:04.556Z,4748
2019-02-20T11:35:05.318Z,4668
2019-02-20T11:36:05.949Z,4636
2019-02-20T11:37:06.629Z,4728
2019-02-20T11:38:07.312Z,4752
2019-02-20T11:39:07.997Z,5116
2019-02-20T11:40:08.724Z,5756
2019-02-20T11:41:09.404Z,5352
2019-02-20T11:42:10.088Z,5408
2019-02-20T11:43:10.766Z,5532
2019-02-20T11:44:11.445Z,5576
2019-02-20T11:45:12.128Z,5480
2019-02-20T11:46:12.808Z,5360
2019-02-20T11:47:13.490Z,5452
2019-02-20T11:48:14.171Z,5492
2019-02-20T11:49:14.852Z,5436
2019-02-20T11:50:15.532Z,5424
2019-02-20T11:51:16.213Z,5332
2019-02-20T11:52:18.424Z,5308
2019-02-20T11:53:17.616Z,5364
2019-02-20T11:54:18.297Z,5072
2019-02-20T11:55:18.982Z,5040
2019-02-20T11:56:26.414Z,4936
2019-02-20T11:57:21.381Z,4976
2019-02-20T11:58:22.066Z,5072
2019-02-20T11:59:22.745Z,5132
2019-02-20T12:00:23.427Z,5156
2019-02-20T12:01:24.107Z,5232
2019-02-20T12:02:25.437Z,5308
2019-02-20T12:03:26.136Z,5076
2019-02-20T12:04:26.816Z,4848
2019-02-20T12:05:27.497Z,4792
2019-02-20T12:06:28.225Z,5076
2019-02-20T12:07:28.905Z,5236
2019-02-20T12:08:29.590Z,5212
2019-02-20T12:09:30.280Z,5112
2019-02-20T12:10:30.951Z,5184
2019-02-20T12:11:31.636Z,5344
2019-02-20T12:12:32.381Z,5540
2019-02-20T12:13:33.104Z,5632
2019-02-20T12:14:33.827Z,5684
2019-02-20T12:15:34.507Z,5696
2019-02-20T12:16:35.188Z,5664
2019-02-20T12:17:35.870Z,5552
2019-02-20T12:18:36.552Z,5432
2019-02-20T12:19:37.233Z,5368
2019-02-20T12:20:37.915Z,5356
2019-02-20T12:21:38.595Z,5420
2019-02-20T12:22:39.278Z,5340
2019-02-20T12:23:39.959Z,5312
2019-02-20T12:24:40.741Z,5156
2019-02-20T12:25:41.415Z,5308
2019-02-20T12:26:42.098Z,5344
2019-02-20T12:27:42.777Z,5168
2019-02-20T12:28:43.459Z,5160
2019-02-20T12:29:44.142Z,5028
2019-02-20T12:30:44.824Z,4852
2019-02-20T12:31:52.284Z,4668
2019-02-20T12:32:47.177Z,4596
2019-02-20T12:33:47.859Z,4828
2019-02-20T12:34:48.543Z,4920
2019-02-20T12:35:49.221Z,4804
2019-02-20T12:36:49.904Z,4752
2019-02-20T12:37:50.611Z,4736
2019-02-20T12:38:51.318Z,4440
2019-02-20T12:39:51.996Z,4224
2019-02-20T12:40:52.678Z,3980
2019-02-20T12:41:53.359Z,3992
2019-02-20T12:42:54.042Z,3896
2019-02-20T12:43:54.773Z,3984
2019-02-20T12:44:55.460Z,4432
2019-02-20T12:45:56.140Z,4388
2019-02-20T12:46:56.817Z,4600
2019-02-20T12:47:57.498Z,4820
2019-02-20T12:48:58.178Z,4680
2019-02-20T12:49:58.860Z,4804
2019-02-20T12:50:59.540Z,4948
2019-02-20T12:52:00.231Z,4916
2019-02-20T12:53:00.952Z,4636
2019-02-20T12:54:01.635Z,5060
2019-02-20T12:55:02.316Z,4908
2019-02-20T12:56:09.817Z,4892
2019-02-20T12:57:03.771Z,4696
2019-02-20T12:58:04.454Z,3896
2019-02-20T12:59:07.759Z,3732
2019-02-20T13:00:06.850Z,3776
2019-02-20T13:01:07.508Z,3868
2019-02-20T13:02:08.188Z,3948
2019-02-20T13:03:08.868Z,3972
2019-02-20T13:04:09.548Z,3976
2019-02-20T13:05:10.228Z,4024
2019-02-20T13:06:10.931Z,4140
2019-02-20T13:07:11.640Z,4348
2019-02-20T13:08:12.322Z,4436
2019-02-20T13:09:13.051Z,4448
2019-02-20T13:10:13.729Z,4480
2019-02-20T13:11:14.605Z,4540
2019-02-20T13:12:15.295Z,4608
2019-02-20T13:13:15.978Z,4616
2019-02-20T13:14:16.707Z,4600
2019-02-20T13:15:17.388Z,4580
2019-02-20T13:16:18.068Z,4584
2019-02-20T13:17:18.749Z,4608
2019-02-20T13:18:19.490Z,4604
2019-02-20T13:19:20.183Z,4616
2019-02-20T13:20:21.374Z,4640
2019-02-20T13:21:21.587Z,4684
2019-02-20T13:22:22.288Z,4732
2019-02-20T13:23:22.997Z,4828
2019-02-20T13:24:23.678Z,4812
2019-02-20T13:25:24.359Z,4844
2019-02-20T13:26:25.039Z,4936
2019-02-20T13:27:25.719Z,5048
2019-02-20T13:28:26.400Z,5188
2019-02-20T13:29:27.095Z,5168
2019-02-20T13:30:27.813Z,5512
2019-02-20T13:31:28.495Z,5488
2019-02-20T13:32:29.176Z,5352
2019-02-20T13:33:29.859Z,4812
2019-02-20T13:34:30.543Z,5560
2019-02-20T13:35:31.220Z,6080
2019-02-20T13:36:31.900Z,5492
2019-02-20T13:37:32.580Z,5148
2019-02-20T13:38:33.262Z,4792
2019-02-20T13:39:33.944Z,4880
2019-02-20T13:40:34.626Z,5096
2019-02-20T13:41:35.308Z,4964
2019-02-20T13:42:36.037Z,4860
2019-02-20T13:43:36.719Z,4660
2019-02-20T13:44:37.398Z,4948
2019-02-20T13:45:38.078Z,4652
2019-02-20T13:46:38.946Z,4676
2019-02-20T13:47:40.466Z,4444
2019-02-20T13:48:41.245Z,4980
2019-02-20T13:49:41.926Z,5088
2019-02-20T13:50:42.607Z,4740
2019-02-20T13:51:43.293Z,4376
2019-02-20T13:52:52.109Z,3984
2019-02-20T13:53:46.592Z,3768
2019-02-20T13:54:47.313Z,3696
2019-02-20T13:55:48.201Z,3996
2019-02-20T13:56:48.882Z,4048
2019-02-20T13:57:49.563Z,4024
2019-02-20T13:58:50.245Z,3884
2019-02-20T13:59:50.926Z,3768
2019-02-20T14:00:51.607Z,3756
2019-02-20T14:01:52.295Z,3888
2019-02-20T14:02:53.017Z,4108
2019-02-20T14:03:53.943Z,4280
2019-02-20T14:04:54.623Z,4380
2019-02-20T14:05:55.304Z,4404